Cfl Performer — PHLY — position and weather

sailwx.info

Track history (hours):
 
Tides and Currents Weather Stations Pressure Air Temp Water Temp Dewpoint Dewpoint Depression Visibility Wind Speed Wind Dir Waves Ship Positions

Cfl Performer

Last reported at 2016-Feb-11 16:10 UTC. Time now 2016-Feb-11 21:17 UTC.
Position N 57°57' E 008°35'.

Length 117 m; draft 6.2 m.

Type: Cargo ship. MMSI: 244989000.

Date/timePositionNaut miles runAvg speedWind from/ knotsBaromVisibWave heightAir tempDewpointWater temp
2016-Feb-11 16:10N 57°57' E 008°35'711.2
2016-Feb-11 15:33N 58°03' E 008°41'1211.6
2016-Feb-11 14:33N 58°13' E 008°54'2912.1
2016-Feb-11 12:10N 58°37' E 009°25'812.9
2016-Feb-11 11:33N 58°43' E 009°34'1212.3
2016-Feb-11 10:33N 58°54' E 009°47'12 9.0
2016-Feb-11 09:11N 59°05' E 009°38'2 0.2
2016-Feb-10 18:22N 59°07' E 009°37'0 0.0
2016-Feb-10 17:31N 59°07' E 009°37'0 0.0
2016-Feb-10 16:28N 59°07' E 009°37'0 0.0
2016-Feb-10 15:28N 59°07' E 009°37'0 0.0
2016-Feb-10 14:31N 59°07' E 009°37'0 0.0
2016-Feb-10 13:19N 59°07' E 009°37'0 0.6
2016-Feb-10 12:33N 59°07' E 009°38'0 0.0
2016-Feb-10 11:30N 59°07' E 009°38'0 0.0
2016-Feb-10 10:30N 59°07' E 009°38'0 0.0
2016-Feb-10 09:18N 59°07' E 009°38'0 0.0
2016-Feb-10 08:24N 59°07' E 009°38'0 0.0
2016-Feb-10 05:15N 59°07' E 009°38'0 0.0
2016-Feb-10 03:15N 59°07' E 009°38'0 0.0
2016-Feb-10 01:12N 59°07' E 009°38'0 0.0
2016-Feb-10 00:24N 59°07' E 009°38'0 0.0
2016-Feb-09 23:33N 59°07' E 009°38'0 0.0
2016-Feb-09 22:33N 59°07' E 009°38'0 0.0
2016-Feb-09 21:30N 59°07' E 009°38'0 0.0
2016-Feb-09 20:30N 59°07' E 009°38'0 0.0
2016-Feb-09 19:18N 59°07' E 009°38'0 0.0
2016-Feb-09 18:30N 59°07' E 009°38'  
2016-Feb-07 09:33N 59°05' E 009°38'8 8.3
2016-Feb-07 08:33N 58°58' E 009°47'48 6.9
2016-Feb-07 01:33N 58°19' E 008°54'10 9.7
2016-Feb-07 00:33N 58°11' E 008°42'1010.1
2016-Feb-06 23:33N 58°04' E 008°29'4310.0
2016-Feb-06 19:19N 57°47' E 007°15'810.5
2016-Feb-06 18:33N 57°45' E 007°01'10 9.8
2016-Feb-06 17:33N 57°46' E 006°43'6 5.9
2016-Feb-06 16:33N 57°44' E 006°32'10 9.9
2016-Feb-06 15:33N 57°44' E 006°14'289 7.4
2016-Feb-05 00:14N 58°28' W 002°47'5 7.1
2016-Feb-04 23:33N 58°32' W 002°52'7 7.4
2016-Feb-04 22:33N 58°39' W 002°58'7 7.4
2016-Feb-04 21:33N 58°43' W 003°10'1010.2
2016-Feb-04 20:32N 58°41' W 003°30'1010.3
2016-Feb-04 19:33N 58°40' W 003°49'194 8.4
2016-Feb-03 20:33N 55°54' W 006°54'1010.0
2016-Feb-03 19:33N 55°45' W 006°45'1010.3
2016-Feb-03 18:33N 55°37' W 006°33'1010.0
2016-Feb-03 17:33N 55°31' W 006°20'10 9.5
2016-Feb-03 16:33N 55°25' W 006°06'9 8.6
2016-Feb-03 15:33N 55°19' W 005°55'10 9.4
2016-Feb-03 14:32N 55°12' W 005°45'1110.7
2016-Feb-03 13:30N 55°03' W 005°34'1111.4
2016-Feb-03 12:33N 54°54' W 005°23'1211.7
2016-Feb-03 11:33N 54°44' W 005°11'1111.3
2016-Feb-03 10:33N 54°36' W 004°59'1212.3
2016-Feb-03 09:33N 54°36' W 004°37'  
Track history (hours):
 
Tides and Currents Weather Stations Pressure Air Temp Water Temp Dewpoint Dewpoint Depression Visibility Wind Speed Wind Dir Waves Ship Positions

Cfl Performer

Last reported at 2016-Feb-11 16:10 UTC. Time now 2016-Feb-11 21:17 UTC.
Position N 57°57' E 008°35'.

Length 117 m; draft 6.2 m.

Type: Cargo ship. MMSI: 244989000.

Date/timePositionNaut miles runAvg speedWind from/ knotsBaromVisibWave heightAir tempDewpointWater temp
2016-Feb-11 16:10N 57°57' E 008°35'711.2
2016-Feb-11 15:33N 58°03' E 008°41'1211.6
2016-Feb-11 14:33N 58°13' E 008°54'2912.1
2016-Feb-11 12:10N 58°37' E 009°25'812.9
2016-Feb-11 11:33N 58°43' E 009°34'1212.3
2016-Feb-11 10:33N 58°54' E 009°47'12 9.0
2016-Feb-11 09:11N 59°05' E 009°38'2 0.2
2016-Feb-10 18:22N 59°07' E 009°37'0 0.0
2016-Feb-10 17:31N 59°07' E 009°37'0 0.0
2016-Feb-10 16:28N 59°07' E 009°37'0 0.0
2016-Feb-10 15:28N 59°07' E 009°37'0 0.0
2016-Feb-10 14:31N 59°07' E 009°37'0 0.0
2016-Feb-10 13:19N 59°07' E 009°37'0 0.6
2016-Feb-10 12:33N 59°07' E 009°38'0 0.0
2016-Feb-10 11:30N 59°07' E 009°38'0 0.0
2016-Feb-10 10:30N 59°07' E 009°38'0 0.0
2016-Feb-10 09:18N 59°07' E 009°38'0 0.0
2016-Feb-10 08:24N 59°07' E 009°38'0 0.0
2016-Feb-10 05:15N 59°07' E 009°38'0 0.0
2016-Feb-10 03:15N 59°07' E 009°38'0 0.0
2016-Feb-10 01:12N 59°07' E 009°38'0 0.0
2016-Feb-10 00:24N 59°07' E 009°38'0 0.0
2016-Feb-09 23:33N 59°07' E 009°38'0 0.0
2016-Feb-09 22:33N 59°07' E 009°38'0 0.0
2016-Feb-09 21:30N 59°07' E 009°38'0 0.0
2016-Feb-09 20:30N 59°07' E 009°38'0 0.0
2016-Feb-09 19:18N 59°07' E 009°38'0 0.0
2016-Feb-09 18:30N 59°07' E 009°38'  
2016-Feb-07 09:33N 59°05' E 009°38'8 8.3
2016-Feb-07 08:33N 58°58' E 009°47'48 6.9
2016-Feb-07 01:33N 58°19' E 008°54'10 9.7
2016-Feb-07 00:33N 58°11' E 008°42'1010.1
2016-Feb-06 23:33N 58°04' E 008°29'4310.0
2016-Feb-06 19:19N 57°47' E 007°15'810.5
2016-Feb-06 18:33N 57°45' E 007°01'10 9.8
2016-Feb-06 17:33N 57°46' E 006°43'6 5.9
2016-Feb-06 16:33N 57°44' E 006°32'10 9.9
2016-Feb-06 15:33N 57°44' E 006°14'289 7.4
2016-Feb-05 00:14N 58°28' W 002°47'5 7.1
2016-Feb-04 23:33N 58°32' W 002°52'7 7.4
2016-Feb-04 22:33N 58°39' W 002°58'7 7.4
2016-Feb-04 21:33N 58°43' W 003°10'1010.2
2016-Feb-04 20:32N 58°41' W 003°30'1010.3
2016-Feb-04 19:33N 58°40' W 003°49'194 8.4
2016-Feb-03 20:33N 55°54' W 006°54'1010.0
2016-Feb-03 19:33N 55°45' W 006°45'1010.3
2016-Feb-03 18:33N 55°37' W 006°33'1010.0
2016-Feb-03 17:33N 55°31' W 006°20'10 9.5
2016-Feb-03 16:33N 55°25' W 006°06'9 8.6
2016-Feb-03 15:33N 55°19' W 005°55'10 9.4
2016-Feb-03 14:32N 55°12' W 005°45'1110.7
2016-Feb-03 13:30N 55°03' W 005°34'1111.4
2016-Feb-03 12:33N 54°54' W 005°23'1211.7
2016-Feb-03 11:33N 54°44' W 005°11'1111.3
2016-Feb-03 10:33N 54°36' W 004°59'1212.3
2016-Feb-03 09:33N 54°36' W 004°37'  

Dump ship's entire track history